Terminal Aerodrome Forecast
Issued by NWS

Home | Current Version | Previous Version | Text Only | Print | Product List | Glossary On
Versions: 1 2 3 4 5 6 7 8 9 10 11 12 13 14
262
FTUS46 KSEW 060530
TAFCLM
TAF
KCLM 060530Z 0606/0706 23004KT P6SM -RA BKN017 BKN040 OVC050
     FM061200 24006KT P6SM BKN050
     FM061800 17006KT P6SM FEW250=

USA.gov is the U.S. government's official web portal to all federal, state and local government web resources and services.